チューク諸島 の空港の天気 - METARとTAF

チューク国際空港 ( PTKK / TKK ) - ミクロネシア連邦 チューク諸島
飛行場実況気象(Metar)
観測時間10/20 13:51 +10 (10/20 03:51 UTC)
風向・風速北 3m/s
視程10km以上
天気現象
少しの雲 雲底高度 430m
全天の8割程度の雲 雲底高度 3660m
全天を覆う雲 雲底高度 8530m
気温30.6℃
湿度80%
気圧1008.3hPa
METARPTKK 200351Z VRB05KT 15SM FEW014 BKN120 OVC280 31/27 A2977 RMK SLP083 T03060268
過去の天気等 Google飛行場航空写真 Wunderground天気予報

過去48時間のMETAR

飛行場予報(TAF)
発表時間: 10/20 09:20 +10 (10/19 23:20 UTC)
予報対象時間: 20日10時 +10 ~ 21日10時 +10
風向・風速南南西 4m/s
視程10km以上
天気現象周辺でしゅう雨
全天の4割程度の雲 雲底高度 430m
全天の8割程度の雲 雲底高度 3660m
PTKK 192320Z 2000/2024 20008KT P6SM VCSH SCT014 BKN120